createdAt,value
2022-11-07T00:00:26.553Z,100286.47
2022-11-07T00:03:29.039Z,100289.31
2022-11-07T00:06:32.178Z,100285.28
2022-11-07T00:09:34.985Z,100290.06
2022-11-07T00:12:37.486Z,100280.88
2022-11-07T00:15:41.330Z,100288.38
2022-11-07T00:18:43.815Z,100293.22
2022-11-07T00:21:46.473Z,100275.09
2022-11-07T00:24:48.966Z,100279.47
2022-11-07T00:27:51.468Z,100279.97
2022-11-07T00:30:55.292Z,100275.31
2022-11-07T00:33:58.471Z,100287.13
2022-11-07T00:37:00.985Z,100283.06
2022-11-07T00:40:03.706Z,100284.00
2022-11-07T00:43:06.201Z,100288.69
2022-11-07T00:46:11.747Z,100297.34
2022-11-07T00:49:14.234Z,100290.59
2022-11-07T00:52:16.752Z,100297.13
2022-11-07T00:55:19.228Z,100296.66
2022-11-07T00:58:21.703Z,100306.72
2022-11-07T01:01:27.380Z,100302.25
2022-11-07T01:04:47.478Z,100312.41
2022-11-07T01:07:49.961Z,100311.16
2022-11-07T01:10:52.588Z,100312.06
2022-11-07T01:13:56.393Z,100318.47
2022-11-07T01:17:00.225Z,100318.53
2022-11-07T01:20:02.741Z,100321.75
2022-11-07T01:23:05.493Z,100315.88
2022-11-07T01:26:10.741Z,100317.22
2022-11-07T01:29:13.545Z,100317.97
2022-11-07T01:32:17.494Z,100319.59
2022-11-07T01:35:19.982Z,100318.28
2022-11-07T01:38:22.575Z,100319.84
2022-11-07T01:41:28.197Z,100317.63
2022-11-07T01:44:52.465Z,100315.56
2022-11-07T01:47:59.632Z,100317.84
2022-11-07T01:51:02.379Z,100319.38
2022-11-07T01:54:05.874Z,100311.94
2022-11-07T01:57:14.007Z,100308.59
2022-11-07T02:00:20.302Z,100316.25
2022-11-07T02:03:24.337Z,100309.75
2022-11-07T02:06:36.214Z,100316.56
2022-11-07T02:09:38.750Z,100312.34
2022-11-07T02:12:41.639Z,100302.81
2022-11-07T02:15:44.244Z,100318.09
2022-11-07T02:18:48.400Z,100312.56
2022-11-07T02:21:59.432Z,100304.06
2022-11-07T02:25:05.876Z,100309.84
2022-11-07T02:28:11.136Z,100311.72
2022-11-07T02:31:13.632Z,100310.16
2022-11-07T02:34:16.141Z,100310.09
2022-11-07T02:37:24.761Z,100314.91
2022-11-07T02:40:31.415Z,100314.75
2022-11-07T02:43:36.095Z,100307.03
2022-11-07T02:46:39.033Z,100304.47
2022-11-07T02:49:41.541Z,100308.19
2022-11-07T02:52:44.341Z,100312.66
2022-11-07T02:55:48.171Z,100316.09
2022-11-07T02:58:52.407Z,100328.81
2022-11-07T03:01:55.119Z,100324.59
2022-11-07T03:04:58.497Z,100329.59
2022-11-07T03:08:01.002Z,100327.59
2022-11-07T03:11:05.869Z,100321.50
2022-11-07T03:14:08.381Z,100327.78
2022-11-07T03:17:11.098Z,100327.34
2022-11-07T03:20:13.740Z,100322.34
2022-11-07T03:23:16.847Z,100324.59
2022-11-07T03:26:21.472Z,100328.44
2022-11-07T03:29:23.950Z,100327.03
2022-11-07T03:32:26.614Z,100336.56
2022-11-07T03:35:29.127Z,100340.78
2022-11-07T03:38:31.637Z,100339.22
2022-11-07T03:41:35.459Z,100340.22
2022-11-07T03:44:37.970Z,100333.44
2022-11-07T03:47:42.596Z,100340.63
2022-11-07T03:50:45.083Z,100336.19
2022-11-07T03:53:47.569Z,100334.69
2022-11-07T03:56:51.407Z,100339.81
2022-11-07T03:59:53.909Z,100344.38
2022-11-07T04:02:56.472Z,100341.41
2022-11-07T04:05:59.688Z,100343.44
2022-11-07T04:09:02.172Z,100342.13
2022-11-07T04:12:32.655Z,100347.88
2022-11-07T04:15:52.868Z,100345.41
2022-11-07T04:18:55.491Z,100348.28
2022-11-07T04:21:57.987Z,100346.56
2022-11-07T04:25:00.524Z,100350.91
2022-11-07T04:28:03.828Z,100347.72
2022-11-07T04:31:06.593Z,100355.47
2022-11-07T04:34:09.070Z,100353.66
2022-11-07T04:37:11.590Z,100347.09
2022-11-07T04:40:14.844Z,100348.72
2022-11-07T04:43:18.651Z,100345.09
2022-11-07T04:46:23.097Z,100346.38
2022-11-07T04:49:25.617Z,100345.38
2022-11-07T04:52:28.108Z,100346.22
2022-11-07T04:55:31.493Z,100339.44
2022-11-07T04:58:35.657Z,100336.56
2022-11-07T05:01:38.228Z,100342.66
2022-11-07T05:04:41.158Z,100351.69
2022-11-07T05:07:44.311Z,100339.59
2022-11-07T05:10:46.862Z,100348.97
2022-11-07T05:13:50.705Z,100342.97
2022-11-07T05:16:55.508Z,100350.41
2022-11-07T05:19:57.988Z,100348.28
2022-11-07T05:23:17.634Z,100356.38
2022-11-07T05:26:20.537Z,100351.88
2022-11-07T05:29:24.350Z,100352.03
2022-11-07T05:32:26.854Z,100352.97
2022-11-07T05:35:29.348Z,100355.47
2022-11-07T05:38:31.823Z,100354.53
2022-11-07T05:41:36.848Z,100363.44
2022-11-07T05:44:40.672Z,100366.47
2022-11-07T05:47:43.209Z,100372.28
2022-11-07T05:50:45.696Z,100369.66
2022-11-07T05:53:48.217Z,100376.09
2022-11-07T05:56:50.704Z,100371.69
2022-11-07T05:59:54.522Z,100367.66
2022-11-07T06:03:00.362Z,100363.28
2022-11-07T06:06:02.990Z,100366.09
2022-11-07T06:09:05.724Z,100363.13
2022-11-07T06:12:08.510Z,100378.22
2022-11-07T06:15:12.715Z,100383.75
2022-11-07T06:18:16.941Z,100380.31
2022-11-07T06:21:19.440Z,100388.84
2022-11-07T06:24:21.925Z,100388.91
2022-11-07T06:27:24.445Z,100394.94
2022-11-07T06:30:28.668Z,100395.59
2022-11-07T06:33:31.317Z,100397.09
2022-11-07T06:36:33.813Z,100407.19
2022-11-07T06:39:36.301Z,100413.66
2022-11-07T06:42:39.216Z,100410.56
2022-11-07T06:45:44.233Z,100414.38
2022-11-07T06:48:46.952Z,100406.84
2022-11-07T06:51:49.461Z,100415.53
2022-11-07T06:54:51.943Z,100413.19
2022-11-07T06:57:58.816Z,100415.53
2022-11-07T07:01:04.201Z,100421.69
2022-11-07T07:04:06.816Z,100422.78
2022-11-07T07:07:09.327Z,100427.63
2022-11-07T07:10:11.847Z,100422.56
2022-11-07T07:13:15.293Z,100430.22
2022-11-07T07:16:19.242Z,100430.13
2022-11-07T07:19:21.727Z,100436.53
2022-11-07T07:22:24.222Z,100443.56
2022-11-07T07:25:27.320Z,100447.38
2022-11-07T07:28:29.890Z,100439.22
2022-11-07T07:31:33.735Z,100443.13
2022-11-07T07:34:36.262Z,100448.81
2022-11-07T07:37:38.765Z,100451.97
2022-11-07T07:40:41.507Z,100454.22
2022-11-07T07:43:44.553Z,100464.38
2022-11-07T07:46:48.419Z,100464.09
2022-11-07T07:49:50.907Z,100463.59
2022-11-07T07:52:57.162Z,100462.84
2022-11-07T07:56:02.626Z,100469.25
2022-11-07T07:59:05.155Z,100460.22
2022-11-07T08:02:11.367Z,100463.16
2022-11-07T08:05:15.302Z,100458.78
2022-11-07T08:08:17.784Z,100464.50
2022-11-07T08:11:20.288Z,100472.47
2022-11-07T08:14:22.801Z,100457.06
2022-11-07T08:17:26.647Z,100469.91
2022-11-07T08:20:29.443Z,100456.53
2022-11-07T08:23:32.398Z,100479.16
2022-11-07T08:26:35.212Z,100478.78
2022-11-07T08:29:37.696Z,100476.13
2022-11-07T08:32:41.504Z,100467.81
2022-11-07T08:35:43.969Z,100487.34
2022-11-07T08:38:46.454Z,100485.16
2022-11-07T08:41:48.927Z,100482.31
2022-11-07T08:44:51.417Z,100484.97
2022-11-07T08:47:58.893Z,100494.97
2022-11-07T08:51:02.918Z,100494.03
2022-11-07T08:54:05.643Z,100497.47
2022-11-07T08:57:08.136Z,100500.78
2022-11-07T09:00:12.047Z,100498.75
2022-11-07T09:03:45.095Z,100500.56
2022-11-07T09:06:38.381Z,100509.25
2022-11-07T09:09:40.907Z,100504.78
2022-11-07T09:12:47.131Z,100508.06
2022-11-07T09:15:51.789Z,100511.50
2022-11-07T09:18:56.366Z,100508.78
2022-11-07T09:21:58.906Z,100496.03
2022-11-07T09:25:01.400Z,100500.72
2022-11-07T09:28:04.224Z,100506.22
2022-11-07T09:31:07.125Z,100496.25
2022-11-07T09:34:10.970Z,100492.78
2022-11-07T09:37:13.566Z,100500.28
2022-11-07T09:40:25.214Z,100499.75
2022-11-07T09:43:48.153Z,100493.94
2022-11-07T09:47:04.801Z,100498.56
2022-11-07T09:50:15.059Z,100501.00
2022-11-07T09:53:23.273Z,100499.69
2022-11-07T09:56:27.770Z,100503.56
2022-11-07T09:59:37.169Z,100509.22
2022-11-07T10:02:44.166Z,100514.22
2022-11-07T10:05:55.747Z,100516.06
2022-11-07T10:09:11.945Z,100511.47
2022-11-07T10:12:25.088Z,100519.84
2022-11-07T10:15:34.564Z,100536.13
2022-11-07T10:18:51.369Z,100532.53
2022-11-07T10:22:12.555Z,100533.22
2022-11-07T10:25:21.247Z,100538.38
2022-11-07T10:28:26.788Z,100538.03
2022-11-07T10:31:34.968Z,100537.69
2022-11-07T10:34:42.596Z,100540.06
2022-11-07T10:37:54.686Z,100546.28
2022-11-07T10:40:57.561Z,100545.75
2022-11-07T10:44:04.219Z,100538.53
2022-11-07T10:47:16.530Z,100547.44
2022-11-07T10:50:20.997Z,100545.56
2022-11-07T10:53:26.455Z,100536.88
2022-11-07T10:56:29.085Z,100541.75
2022-11-07T10:59:36.370Z,100542.91
2022-11-07T11:02:48.424Z,100549.34
2022-11-07T11:05:51.327Z,100544.97
2022-11-07T11:08:55.689Z,100540.59
2022-11-07T11:11:58.296Z,100541.50
2022-11-07T11:15:06.495Z,100534.09
2022-11-07T11:18:19.151Z,100532.28
2022-11-07T11:21:22.062Z,100540.66
2022-11-07T11:24:35.651Z,100539.38
2022-11-07T11:27:39.600Z,100544.16
2022-11-07T11:30:43.024Z,100542.25
2022-11-07T11:33:50.236Z,100553.22
2022-11-07T11:36:58.593Z,100538.84
2022-11-07T11:40:10.165Z,100543.47
2022-11-07T11:43:21.082Z,100543.66
2022-11-07T11:46:28.607Z,100540.81
2022-11-07T11:49:36.443Z,100524.97
2022-11-07T11:52:39.380Z,100531.56
2022-11-07T11:55:52.323Z,100529.75
2022-11-07T11:59:09.438Z,100531.81
2022-11-07T12:02:34.367Z,100545.25
2022-11-07T12:06:07.441Z,100540.94
2022-11-07T12:09:32.981Z,100546.94
2022-11-07T12:12:57.559Z,100550.56
2022-11-07T12:16:09.607Z,100531.16
2022-11-07T12:19:24.695Z,100554.50
2022-11-07T12:22:39.830Z,100541.50
2022-11-07T12:25:45.648Z,100551.81
2022-11-07T12:28:56.085Z,100550.72
2022-11-07T12:32:14.436Z,100566.84
2022-11-07T12:35:30.053Z,100563.09
2022-11-07T12:39:01.237Z,100558.22
2022-11-07T12:42:08.966Z,100549.84
2022-11-07T12:45:23.101Z,100553.28
2022-11-07T12:48:54.253Z,100550.72
2022-11-07T12:52:03.675Z,100551.31
2022-11-07T12:55:21.560Z,100552.03
2022-11-07T12:58:29.103Z,100553.50
2022-11-07T13:01:40.679Z,100554.84
2022-11-07T13:04:50.009Z,100535.06
2022-11-07T13:07:59.724Z,100550.34
2022-11-07T13:11:08.142Z,100549.09
2022-11-07T13:14:24.249Z,100544.72
2022-11-07T13:17:40.402Z,100543.22
2022-11-07T13:20:42.886Z,100540.66
2022-11-07T13:23:46.321Z,100541.41
2022-11-07T13:26:48.981Z,100544.16
2022-11-07T13:29:51.973Z,100544.50
2022-11-07T13:32:55.819Z,100557.22
2022-11-07T13:36:00.319Z,100546.19
2022-11-07T13:39:07.689Z,100539.06
2022-11-07T13:42:16.915Z,100545.47
2022-11-07T13:45:27.176Z,100546.47
2022-11-07T13:48:36.599Z,100553.00
2022-11-07T13:51:43.470Z,100563.22
2022-11-07T13:54:53.270Z,100574.56
2022-11-07T13:57:58.726Z,100581.97
2022-11-07T14:01:09.847Z,100587.44
2022-11-07T14:04:16.950Z,100582.34
2022-11-07T14:07:24.844Z,100584.25
2022-11-07T14:10:32.889Z,100587.16
2022-11-07T14:13:41.251Z,100591.31
2022-11-07T14:16:46.865Z,100586.47
2022-11-07T14:19:50.702Z,100581.13
2022-11-07T14:22:55.834Z,100571.53
2022-11-07T14:26:00.672Z,100582.19
2022-11-07T14:29:04.020Z,100584.81
2022-11-07T14:32:08.268Z,100582.38
2022-11-07T14:35:12.101Z,100585.13
2022-11-07T14:38:20.201Z,100589.25
2022-11-07T14:41:24.096Z,100586.41
2022-11-07T14:44:47.547Z,100590.28
2022-11-07T14:47:54.715Z,100596.47
2022-11-07T14:51:00.675Z,100584.41
2022-11-07T14:54:07.814Z,100591.59
2022-11-07T14:57:12.647Z,100582.38
2022-11-07T15:00:17.611Z,100577.22
2022-11-07T15:03:22.607Z,100584.41
2022-11-07T15:06:33.167Z,100584.97
2022-11-07T15:09:35.692Z,100575.81
2022-11-07T15:12:50.760Z,100590.19
2022-11-07T15:16:01.851Z,100580.84
2022-11-07T15:19:07.043Z,100572.59
2022-11-07T15:22:29.255Z,100584.97
2022-11-07T15:25:35.821Z,100589.94
2022-11-07T15:28:46.454Z,100591.25
2022-11-07T15:31:49.891Z,100602.00
2022-11-07T15:35:17.024Z,100603.19
2022-11-07T15:38:21.419Z,100600.78
2022-11-07T15:41:23.928Z,100605.44
2022-11-07T15:44:26.461Z,100609.72
2022-11-07T15:47:30.293Z,100614.28
2022-11-07T15:50:44.441Z,100611.94
2022-11-07T15:53:48.269Z,100613.75
2022-11-07T15:56:54.540Z,100610.00
2022-11-07T16:00:02.045Z,100615.22
2022-11-07T16:03:04.852Z,100616.75
2022-11-07T16:06:16.724Z,100614.00
2022-11-07T16:09:22.492Z,100611.59
2022-11-07T16:12:24.997Z,100619.19
2022-11-07T16:15:28.452Z,100627.34
2022-11-07T16:18:42.823Z,100626.31
2022-11-07T16:21:46.627Z,100624.06
2022-11-07T16:24:50.455Z,100634.94
2022-11-07T16:27:55.729Z,100635.22
2022-11-07T16:30:58.667Z,100636.69
2022-11-07T16:34:01.606Z,100629.63
2022-11-07T16:37:04.113Z,100636.38
2022-11-07T16:40:13.190Z,100625.97
2022-11-07T16:43:16.026Z,100634.31
2022-11-07T16:46:21.200Z,100637.41
2022-11-07T16:49:27.258Z,100643.25
2022-11-07T16:52:29.772Z,100633.97
2022-11-07T16:55:33.640Z,100649.63
2022-11-07T16:58:36.486Z,100646.25
2022-11-07T17:01:39.076Z,100652.34
2022-11-07T17:04:41.643Z,100646.63
2022-11-07T17:07:44.136Z,100648.16
2022-11-07T17:10:48.378Z,100646.44
2022-11-07T17:13:50.877Z,100659.94
2022-11-07T17:16:53.405Z,100663.09
2022-11-07T17:19:55.889Z,100657.53
2022-11-07T17:22:58.500Z,100662.09
2022-11-07T17:26:02.595Z,100659.50
2022-11-07T17:29:06.634Z,100666.91
2022-11-07T17:32:09.125Z,100663.88
2022-11-07T17:35:31.258Z,100669.66
2022-11-07T17:38:34.484Z,100678.13
2022-11-07T17:41:39.304Z,100673.84
2022-11-07T17:44:42.045Z,100667.41
2022-11-07T17:47:44.560Z,100666.47
2022-11-07T17:50:47.821Z,100679.97
2022-11-07T17:53:50.646Z,100672.59
2022-11-07T17:56:54.461Z,100672.66
2022-11-07T17:59:56.950Z,100679.09
2022-11-07T18:02:59.451Z,100678.00
2022-11-07T18:06:02.146Z,100682.75
2022-11-07T18:09:06.198Z,100682.47
2022-11-07T18:12:11.433Z,100679.38
2022-11-07T18:15:13.994Z,100681.59
2022-11-07T18:18:16.775Z,100679.56
2022-11-07T18:21:19.959Z,100683.66
2022-11-07T18:24:22.657Z,100677.13
2022-11-07T18:27:26.523Z,100678.00
2022-11-07T18:30:29.056Z,100672.59
2022-11-07T18:33:31.678Z,100678.94
2022-11-07T18:36:36.922Z,100673.66
2022-11-07T18:39:39.728Z,100678.66
2022-11-07T18:42:46.899Z,100680.38
2022-11-07T18:45:49.638Z,100671.19
2022-11-07T18:48:52.280Z,100667.25
2022-11-07T18:51:54.950Z,100676.53
2022-11-07T18:54:57.466Z,100682.91
2022-11-07T18:58:01.393Z,100678.19
2022-11-07T19:01:06.696Z,100686.75
2022-11-07T19:04:11.364Z,100682.63
2022-11-07T19:07:13.921Z,100682.38
2022-11-07T19:10:17.983Z,100685.19
2022-11-07T19:13:21.989Z,100699.84
2022-11-07T19:16:25.090Z,100692.94
2022-11-07T19:19:27.677Z,100692.34
2022-11-07T19:22:31.410Z,100692.78
2022-11-07T19:25:34.020Z,100693.72
2022-11-07T19:28:38.387Z,100693.31
2022-11-07T19:31:40.885Z,100691.84
2022-11-07T19:34:43.405Z,100696.72
2022-11-07T19:37:45.924Z,100705.34
2022-11-07T19:40:49.748Z,100700.72
2022-11-07T19:43:53.681Z,100705.19
2022-11-07T19:46:56.193Z,100703.63
2022-11-07T19:49:58.828Z,100697.09
2022-11-07T19:53:01.339Z,100698.44
2022-11-07T19:56:08.555Z,100696.97
2022-11-07T19:59:12.442Z,100691.53
2022-11-07T20:02:32.303Z,100697.44
2022-11-07T20:05:38.504Z,100695.03
2022-11-07T20:08:41.170Z,100702.59
2022-11-07T20:11:43.768Z,100703.06
2022-11-07T20:14:47.744Z,100708.25
2022-11-07T20:17:50.324Z,100700.00
2022-11-07T20:21:00.971Z,100712.66
2022-11-07T20:24:05.356Z,100704.41
2022-11-07T20:27:11.542Z,100699.31
2022-11-07T20:30:15.693Z,100707.75
2022-11-07T20:33:18.590Z,100708.97
2022-11-07T20:36:21.934Z,100706.97
2022-11-07T20:39:24.448Z,100704.31
2022-11-07T20:42:26.949Z,100701.19
2022-11-07T20:45:30.805Z,100713.41
2022-11-07T20:48:34.032Z,100713.91
2022-11-07T20:51:36.539Z,100713.31
2022-11-07T20:54:39.035Z,100716.81
2022-11-07T20:57:42.593Z,100716.50
2022-11-07T21:00:47.163Z,100718.53
2022-11-07T21:03:50.584Z,100725.06
2022-11-07T21:06:53.136Z,100710.13
2022-11-07T21:09:55.664Z,100716.69
2022-11-07T21:12:58.302Z,100713.75
2022-11-07T21:16:02.706Z,100712.88
2022-11-07T21:19:05.832Z,100718.91
2022-11-07T21:22:08.519Z,100713.59
2022-11-07T21:25:11.411Z,100712.03
2022-11-07T21:28:17.229Z,100720.63
2022-11-07T21:31:24.203Z,100721.06
2022-11-07T21:34:26.700Z,100726.63
2022-11-07T21:37:29.445Z,100717.16
2022-11-07T21:40:32.374Z,100722.25
2022-11-07T21:43:34.885Z,100726.63
2022-11-07T21:46:38.807Z,100715.09
2022-11-07T21:49:41.307Z,100720.31
2022-11-07T21:52:43.836Z,100711.91
2022-11-07T21:55:46.325Z,100710.97
2022-11-07T21:58:49.334Z,100710.41
2022-11-07T22:01:55.118Z,100706.88
2022-11-07T22:04:57.741Z,100705.88
2022-11-07T22:08:00.229Z,100708.97
2022-11-07T22:11:02.837Z,100704.75
2022-11-07T22:14:05.854Z,100698.38
2022-11-07T22:17:09.922Z,100703.59
2022-11-07T22:20:13.417Z,100705.16
2022-11-07T22:23:16.227Z,100707.75
2022-11-07T22:26:21.066Z,100703.28
2022-11-07T22:29:24.303Z,100699.06
2022-11-07T22:32:28.131Z,100709.81
2022-11-07T22:35:30.625Z,100706.22
2022-11-07T22:38:34.038Z,100704.66
2022-11-07T22:41:36.678Z,100701.41
2022-11-07T22:44:39.171Z,100699.66
2022-11-07T22:47:43.046Z,100705.19
2022-11-07T22:50:45.944Z,100709.22
2022-11-07T22:53:48.711Z,100708.78
2022-11-07T22:56:51.229Z,100704.91
2022-11-07T22:59:53.729Z,100708.19
2022-11-07T23:02:58.589Z,100699.41
2022-11-07T23:06:04.011Z,100705.25
2022-11-07T23:09:06.628Z,100703.78
2022-11-07T23:12:09.124Z,100705.53
2022-11-07T23:15:11.922Z,100701.56
2022-11-07T23:18:16.224Z,100699.66
2022-11-07T23:21:20.394Z,100706.66
2022-11-07T23:24:23.632Z,100702.09
2022-11-07T23:27:26.131Z,100703.13
2022-11-07T23:30:30.228Z,100695.88
2022-11-07T23:33:36.607Z,100702.59
2022-11-07T23:36:40.725Z,100694.00
2022-11-07T23:39:43.640Z,100685.03
2022-11-07T23:42:46.115Z,100681.63
2022-11-07T23:46:06.276Z,100684.03
2022-11-07T23:49:28.273Z,100687.13
2022-11-07T23:52:30.766Z,100694.16
2022-11-07T23:55:40.770Z,100682.06
2022-11-07T23:59:00.756Z,100688.66
